createdAt,value
2018-09-08T00:00:12.882Z,30.7
2018-09-08T00:01:15.343Z,30.7
2018-09-08T00:02:17.781Z,30.7
2018-09-08T00:03:20.259Z,30.7
2018-09-08T00:04:22.713Z,30.7
2018-09-08T00:05:25.145Z,30.7
2018-09-08T00:06:27.594Z,30.7
2018-09-08T00:07:30.030Z,30.7
2018-09-08T00:08:32.507Z,30.8
2018-09-08T00:09:34.953Z,30.8
2018-09-08T00:10:37.381Z,30.8
2018-09-08T00:11:39.825Z,30.8
2018-09-08T00:12:42.260Z,30.8
2018-09-08T00:13:44.711Z,30.8
2018-09-08T00:14:47.144Z,30.8
2018-09-08T00:15:49.576Z,30.8
2018-09-08T00:16:52.025Z,30.8
2018-09-08T00:17:54.470Z,30.8
2018-09-08T00:18:56.918Z,30.8
2018-09-08T00:19:59.384Z,30.8
2018-09-08T00:21:01.823Z,30.8
2018-09-08T00:22:04.255Z,30.8
2018-09-08T00:23:06.688Z,30.8
2018-09-08T00:24:09.122Z,30.8
2018-09-08T00:25:11.567Z,30.8
2018-09-08T00:26:13.744Z,30.8
2018-09-08T00:27:16.174Z,30.8
2018-09-08T00:28:18.603Z,30.8
2018-09-08T00:29:21.033Z,30.8
2018-09-08T00:30:23.491Z,30.8
2018-09-08T00:31:25.941Z,30.8
2018-09-08T00:32:28.104Z,30.8
2018-09-08T00:33:30.536Z,30.9
2018-09-08T00:34:32.973Z,30.9
2018-09-08T00:35:35.410Z,30.9
2018-09-08T00:36:37.863Z,30.9
2018-09-08T00:37:40.317Z,30.9
2018-09-08T00:38:42.752Z,30.9
2018-09-08T00:39:45.192Z,30.9
2018-09-08T00:40:47.635Z,30.9
2018-09-08T00:41:50.144Z,30.9
2018-09-08T00:42:52.570Z,30.9
2018-09-08T00:43:55.005Z,30.9
2018-09-08T00:44:57.433Z,30.9
2018-09-08T00:46:00.133Z,30.9
2018-09-08T00:47:02.560Z,30.9
2018-09-08T00:48:05.006Z,30.9
2018-09-08T00:49:07.444Z,30.9
2018-09-08T00:50:09.873Z,30.9
2018-09-08T00:51:12.313Z,30.9
2018-09-08T00:52:14.490Z,30.9
2018-09-08T00:53:16.924Z,30.9
2018-09-08T00:54:19.363Z,30.9
2018-09-08T00:55:21.821Z,30.9
2018-09-08T00:56:24.245Z,30.9
2018-09-08T00:57:26.679Z,30.9
2018-09-08T00:58:29.111Z,30.9
2018-09-08T00:59:31.552Z,30.9
2018-09-08T01:00:33.989Z,30.9
2018-09-08T01:01:36.421Z,30.9
2018-09-08T01:02:38.888Z,30.9
2018-09-08T01:03:41.445Z,30.9
2018-09-08T01:04:43.933Z,30.9
2018-09-08T01:05:46.096Z,30.9
2018-09-08T01:06:48.534Z,30.9
2018-09-08T01:07:50.973Z,30.9
2018-09-08T01:08:53.123Z,30.9
2018-09-08T01:09:55.564Z,30.9
2018-09-08T01:10:57.991Z,30.9
2018-09-08T01:12:00.432Z,30.9
2018-09-08T01:13:02.859Z,30.9
2018-09-08T01:14:04.993Z,30.9
2018-09-08T01:15:06.871Z,30.9
2018-09-08T01:16:09.292Z,30.9
2018-09-08T01:17:11.722Z,30.9
2018-09-08T01:18:14.163Z,30.9
2018-09-08T01:19:16.603Z,30.9
2018-09-08T01:20:19.043Z,30.9
2018-09-08T01:21:21.208Z,30.9
2018-09-08T01:22:23.677Z,30.9
2018-09-08T01:23:26.108Z,30.9
2018-09-08T01:24:28.553Z,30.9
2018-09-08T01:25:30.710Z,30.9
2018-09-08T01:26:33.177Z,30.9
2018-09-08T01:27:35.604Z,31
2018-09-08T01:28:38.052Z,30.9
2018-09-08T01:29:40.477Z,30.9
2018-09-08T01:30:42.911Z,31
2018-09-08T01:31:45.344Z,31
2018-09-08T01:32:47.777Z,31
2018-09-08T01:33:50.217Z,31
2018-09-08T01:34:52.654Z,31
2018-09-08T01:35:55.083Z,31
2018-09-08T01:36:57.248Z,31
2018-09-08T01:37:59.693Z,31
2018-09-08T01:39:02.134Z,31
2018-09-08T01:40:04.588Z,31
2018-09-08T01:41:07.017Z,31
2018-09-08T01:42:09.462Z,31
2018-09-08T01:43:11.889Z,31
2018-09-08T01:44:14.361Z,31
2018-09-08T01:45:16.798Z,31
2018-09-08T01:46:19.246Z,31
2018-09-08T01:47:21.684Z,31
2018-09-08T01:48:24.125Z,31
2018-09-08T01:49:26.571Z,31
2018-09-08T01:50:28.732Z,31
2018-09-08T01:51:31.166Z,31
2018-09-08T01:52:33.613Z,31
2018-09-08T01:53:35.786Z,31
2018-09-08T01:54:38.215Z,31
2018-09-08T01:55:40.381Z,31
2018-09-08T01:56:42.819Z,31
2018-09-08T01:57:45.254Z,31
2018-09-08T01:58:47.712Z,31
2018-09-08T01:59:50.152Z,31
2018-09-08T02:00:52.583Z,31
2018-09-08T02:01:54.716Z,31
2018-09-08T02:02:57.169Z,31
2018-09-08T02:03:59.335Z,31
2018-09-08T02:05:01.785Z,31
2018-09-08T02:06:04.219Z,31
2018-09-08T02:07:06.654Z,31
2018-09-08T02:08:09.091Z,31
2018-09-08T02:09:11.536Z,31
2018-09-08T02:10:13.976Z,31
2018-09-08T02:11:16.406Z,31
2018-09-08T02:12:18.832Z,31
2018-09-08T02:13:21.276Z,31
2018-09-08T02:14:23.437Z,31
2018-09-08T02:15:25.860Z,31
2018-09-08T02:16:28.304Z,31
2018-09-08T02:17:30.734Z,31
2018-09-08T02:18:33.174Z,31
2018-09-08T02:19:35.343Z,31
2018-09-08T02:20:37.782Z,31
2018-09-08T02:21:39.952Z,31
2018-09-08T02:22:42.445Z,31
2018-09-08T02:23:44.943Z,31
2018-09-08T02:24:47.383Z,31
2018-09-08T02:25:49.825Z,31
2018-09-08T02:26:52.265Z,31
2018-09-08T02:27:54.695Z,31
2018-09-08T02:28:57.130Z,31
2018-09-08T02:29:59.561Z,31
2018-09-08T02:31:02.002Z,31
2018-09-08T02:32:04.451Z,31
2018-09-08T02:33:06.882Z,31
2018-09-08T02:34:09.313Z,31
2018-09-08T02:35:11.492Z,31
2018-09-08T02:36:13.943Z,31
2018-09-08T02:37:16.377Z,31
2018-09-08T02:38:18.809Z,31
2018-09-08T02:39:21.235Z,31
2018-09-08T02:40:23.656Z,31
2018-09-08T02:41:26.093Z,31
2018-09-08T02:42:28.551Z,31
2018-09-08T02:43:30.974Z,31
2018-09-08T02:44:33.409Z,31
2018-09-08T02:45:35.839Z,31
2018-09-08T02:46:37.990Z,31
2018-09-08T02:47:40.432Z,31
2018-09-08T02:48:42.872Z,31
2018-09-08T02:49:45.345Z,31
2018-09-08T02:50:47.491Z,31
2018-09-08T02:51:49.919Z,31
2018-09-08T02:52:52.055Z,31
2018-09-08T02:53:54.495Z,31
2018-09-08T02:54:56.918Z,31
2018-09-08T02:55:59.354Z,31
2018-09-08T02:57:01.796Z,31.1
2018-09-08T02:58:04.224Z,31
2018-09-08T02:59:06.399Z,31.1
2018-09-08T03:00:08.826Z,31.1
2018-09-08T03:01:11.264Z,31.1
2018-09-08T03:02:13.715Z,31.1
2018-09-08T03:03:16.147Z,31
2018-09-08T03:04:18.575Z,31
2018-09-08T03:05:21.017Z,31
2018-09-08T03:06:23.455Z,31
2018-09-08T03:07:25.902Z,31
2018-09-08T03:08:28.336Z,31
2018-09-08T03:09:30.806Z,31
2018-09-08T03:10:32.980Z,31
2018-09-08T03:11:35.414Z,30.9
2018-09-08T03:12:37.840Z,30.9
2018-09-08T03:13:40.003Z,30.9
2018-09-08T03:14:42.463Z,30.9
2018-09-08T03:15:44.944Z,30.9
2018-09-08T03:16:47.456Z,30.9
2018-09-08T03:17:49.881Z,30.9
2018-09-08T03:18:52.319Z,30.8
2018-09-08T03:19:54.746Z,30.8
2018-09-08T03:20:57.180Z,30.8
2018-09-08T03:21:59.619Z,30.8
2018-09-08T03:23:02.059Z,30.8
2018-09-08T03:24:04.507Z,30.8
2018-09-08T03:25:06.955Z,30.8
2018-09-08T03:26:09.390Z,30.8
2018-09-08T03:27:11.816Z,30.8
2018-09-08T03:28:13.967Z,30.8
2018-09-08T03:29:16.392Z,30.8
2018-09-08T03:30:18.822Z,30.8
2018-09-08T03:31:21.254Z,30.8
2018-09-08T03:32:23.701Z,30.8
2018-09-08T03:33:26.136Z,30.8
2018-09-08T03:34:28.566Z,30.8
2018-09-08T03:35:30.998Z,30.8
2018-09-08T03:36:33.178Z,30.7
2018-09-08T03:37:35.622Z,30.8
2018-09-08T03:38:37.794Z,30.8
2018-09-08T03:39:40.233Z,30.7
2018-09-08T03:40:42.673Z,30.7
2018-09-08T03:41:45.124Z,30.7
2018-09-08T03:42:47.552Z,30.7
2018-09-08T03:43:49.448Z,30.7
2018-09-08T03:44:51.881Z,30.7
2018-09-08T03:45:54.320Z,30.7
2018-09-08T03:46:56.741Z,30.7
2018-09-08T03:47:59.182Z,30.7
2018-09-08T03:49:01.619Z,30.7
2018-09-08T03:50:04.051Z,30.7
2018-09-08T03:51:06.481Z,30.7
2018-09-08T03:52:08.924Z,30.7
2018-09-08T03:53:11.366Z,30.7
2018-09-08T03:54:13.792Z,30.7
2018-09-08T03:55:16.222Z,30.7
2018-09-08T03:56:18.661Z,30.7
2018-09-08T03:57:21.090Z,30.7
2018-09-08T03:58:23.521Z,30.7
2018-09-08T03:59:25.953Z,30.7
2018-09-08T04:00:28.398Z,30.7
2018-09-08T04:01:30.836Z,30.7
2018-09-08T04:02:33.302Z,30.7
2018-09-08T04:03:35.734Z,30.7
2018-09-08T04:04:38.165Z,30.7
2018-09-08T04:05:40.731Z,30.7
2018-09-08T04:06:43.490Z,30.7
2018-09-08T04:07:45.904Z,30.7
2018-09-08T04:08:48.336Z,30.7
2018-09-08T04:09:50.485Z,30.7
2018-09-08T04:10:52.915Z,30.7
2018-09-08T04:11:55.345Z,30.7
2018-09-08T04:12:57.781Z,30.7
2018-09-08T04:14:00.217Z,30.6
2018-09-08T04:15:02.375Z,30.6
2018-09-08T04:16:04.799Z,30.6
2018-09-08T04:17:07.229Z,30.6
2018-09-08T04:18:09.918Z,30.6
2018-09-08T04:19:12.500Z,30.6
2018-09-08T04:20:14.989Z,30.6
2018-09-08T04:21:17.408Z,30.6
2018-09-08T04:22:19.835Z,30.6
2018-09-08T04:23:22.279Z,30.6
2018-09-08T04:24:24.720Z,30.6
2018-09-08T04:25:26.887Z,30.6
2018-09-08T04:26:29.320Z,30.6
2018-09-08T04:27:31.495Z,30.6
2018-09-08T04:28:33.937Z,30.6
2018-09-08T04:29:36.782Z,30.6
2018-09-08T04:30:39.524Z,30.6
2018-09-08T04:31:41.965Z,30.6
2018-09-08T04:32:44.402Z,30.6
2018-09-08T04:33:46.834Z,30.6
2018-09-08T04:34:49.263Z,30.6
2018-09-08T04:35:51.689Z,30.6
2018-09-08T04:36:54.123Z,30.6
2018-09-08T04:37:56.554Z,30.6
2018-09-08T04:38:58.715Z,30.6
2018-09-08T04:40:01.144Z,30.6
2018-09-08T04:41:03.790Z,30.6
2018-09-08T04:42:06.512Z,30.6
2018-09-08T04:43:08.944Z,30.6
2018-09-08T04:44:11.384Z,30.6
2018-09-08T04:45:13.821Z,30.5
2018-09-08T04:46:16.253Z,30.6
2018-09-08T04:47:18.684Z,30.6
2018-09-08T04:48:20.854Z,30.5
2018-09-08T04:49:23.313Z,30.5
2018-09-08T04:50:25.765Z,30.5
2018-09-08T04:51:28.202Z,30.5
2018-09-08T04:52:30.623Z,30.5
2018-09-08T04:53:33.051Z,30.5
2018-09-08T04:54:35.496Z,30.5
2018-09-08T04:55:37.934Z,30.5
2018-09-08T04:56:40.373Z,30.5
2018-09-08T04:57:42.799Z,30.5
2018-09-08T04:58:45.234Z,30.5
2018-09-08T04:59:47.665Z,30.5
2018-09-08T05:00:50.105Z,30.5
2018-09-08T05:01:52.546Z,30.5
2018-09-08T05:02:54.994Z,30.5
2018-09-08T05:03:57.430Z,30.5
2018-09-08T05:04:59.859Z,30.5
2018-09-08T05:06:02.297Z,30.5
2018-09-08T05:07:04.733Z,30.5
2018-09-08T05:08:07.172Z,30.5
2018-09-08T05:09:10.065Z,30.5
2018-09-08T05:10:12.741Z,30.5
2018-09-08T05:11:15.182Z,30.5
2018-09-08T05:12:17.609Z,30.5
2018-09-08T05:13:20.076Z,30.5
2018-09-08T05:14:22.513Z,30.5
2018-09-08T05:15:24.964Z,30.5
2018-09-08T05:16:27.398Z,30.5
2018-09-08T05:17:29.285Z,30.5
2018-09-08T05:18:31.719Z,30.5
2018-09-08T05:19:34.152Z,30.5
2018-09-08T05:20:36.595Z,30.5
2018-09-08T05:21:39.033Z,30.5
2018-09-08T05:22:41.486Z,30.5
2018-09-08T05:23:43.944Z,30.5
2018-09-08T05:24:46.393Z,30.5
2018-09-08T05:25:48.841Z,30.5
2018-09-08T05:26:51.275Z,30.5
2018-09-08T05:27:53.724Z,30.5
2018-09-08T05:28:56.143Z,30.5
2018-09-08T05:29:58.583Z,30.5
2018-09-08T05:31:01.024Z,30.5
2018-09-08T05:32:03.455Z,30.5
2018-09-08T05:33:05.894Z,30.5
2018-09-08T05:34:08.055Z,30.5
2018-09-08T05:35:10.629Z,30.5
2018-09-08T05:36:13.062Z,30.5
2018-09-08T05:37:15.493Z,30.5
2018-09-08T05:38:17.943Z,30.5
2018-09-08T05:39:20.379Z,30.4
2018-09-08T05:40:22.809Z,30.4
2018-09-08T05:41:25.268Z,30.5
2018-09-08T05:42:27.703Z,30.4
2018-09-08T05:43:30.123Z,30.4
2018-09-08T05:44:32.560Z,30.4
2018-09-08T05:45:35.014Z,30.4
2018-09-08T05:46:37.445Z,30.5
2018-09-08T05:47:39.887Z,30.4
2018-09-08T05:48:42.359Z,30.4
2018-09-08T05:49:44.537Z,30.4
2018-09-08T05:50:46.980Z,30.4
2018-09-08T05:51:49.412Z,30.4
2018-09-08T05:52:51.565Z,30.4
2018-09-08T05:53:54.005Z,30.4
2018-09-08T05:54:56.449Z,30.4
2018-09-08T05:55:58.870Z,30.4
2018-09-08T05:57:01.296Z,30.4
2018-09-08T05:58:03.721Z,30.4
2018-09-08T05:59:06.176Z,30.4
2018-09-08T06:00:08.599Z,30.4
2018-09-08T06:01:11.033Z,30.4
2018-09-08T06:02:13.499Z,30.4
2018-09-08T06:03:15.923Z,30.4
2018-09-08T06:04:18.115Z,30.4
2018-09-08T06:05:20.559Z,30.4
2018-09-08T06:06:22.985Z,30.4
2018-09-08T06:07:25.406Z,30.4
2018-09-08T06:08:27.836Z,30.4
2018-09-08T06:09:30.275Z,30.4
2018-09-08T06:10:32.723Z,30.4
2018-09-08T06:11:35.154Z,30.4
2018-09-08T06:12:37.611Z,30.4
2018-09-08T06:13:40.054Z,30.4
2018-09-08T06:14:42.532Z,30.4
2018-09-08T06:15:44.686Z,30.4
2018-09-08T06:16:47.117Z,30.4
2018-09-08T06:17:49.559Z,30.4
2018-09-08T06:18:51.996Z,30.4
2018-09-08T06:19:54.443Z,30.4
2018-09-08T06:20:56.867Z,30.4
2018-09-08T06:21:59.317Z,30.4
2018-09-08T06:23:01.750Z,30.4
2018-09-08T06:24:04.197Z,30.4
2018-09-08T06:25:06.636Z,30.4
2018-09-08T06:26:09.065Z,30.4
2018-09-08T06:27:11.505Z,30.4
2018-09-08T06:28:13.945Z,30.4
2018-09-08T06:29:16.400Z,30.4
2018-09-08T06:30:18.867Z,30.4
2018-09-08T06:31:21.306Z,30.4
2018-09-08T06:32:23.744Z,30.4
2018-09-08T06:33:26.365Z,30.4
2018-09-08T06:34:28.937Z,30.4
2018-09-08T06:35:31.392Z,30.4
2018-09-08T06:36:33.901Z,30.4
2018-09-08T06:37:36.331Z,30.4
2018-09-08T06:38:38.486Z,30.4
2018-09-08T06:39:40.928Z,30.4
2018-09-08T06:40:43.067Z,30.4
2018-09-08T06:41:45.511Z,30.4
2018-09-08T06:42:47.948Z,30.4
2018-09-08T06:43:50.379Z,30.4
2018-09-08T06:44:53.074Z,30.4
2018-09-08T06:45:55.811Z,30.4
2018-09-08T06:46:57.966Z,30.4
2018-09-08T06:48:00.404Z,30.4
2018-09-08T06:49:02.836Z,30.4
2018-09-08T06:50:05.318Z,30.4
2018-09-08T06:51:07.734Z,30.4
2018-09-08T06:52:10.054Z,30.4
2018-09-08T06:53:12.584Z,30.4
2018-09-08T06:54:14.766Z,30.4
2018-09-08T06:55:17.217Z,30.4
2018-09-08T06:56:19.661Z,30.4
2018-09-08T06:57:22.103Z,30.4
2018-09-08T06:58:24.339Z,30.4
2018-09-08T06:59:26.781Z,30.4
2018-09-08T07:00:29.205Z,30.4
2018-09-08T07:01:31.640Z,30.4
2018-09-08T07:02:34.083Z,30.4
2018-09-08T07:03:36.531Z,30.4
2018-09-08T07:04:38.693Z,30.4
2018-09-08T07:05:41.211Z,30.4
2018-09-08T07:06:43.666Z,30.4
2018-09-08T07:07:45.878Z,30.4
2018-09-08T07:08:48.306Z,30.4
2018-09-08T07:09:50.733Z,30.4
2018-09-08T07:10:53.168Z,30.4
2018-09-08T07:11:55.626Z,30.4
2018-09-08T07:12:58.054Z,30.4
2018-09-08T07:14:00.488Z,30.4
2018-09-08T07:15:03.002Z,30.4
2018-09-08T07:16:05.556Z,30.4
2018-09-08T07:17:07.990Z,30.4
2018-09-08T07:18:10.446Z,30.4
2018-09-08T07:19:12.875Z,30.4
2018-09-08T07:20:15.312Z,30.4
2018-09-08T07:21:17.777Z,30.4
2018-09-08T07:22:20.193Z,30.4
2018-09-08T07:23:22.623Z,30.4
2018-09-08T07:24:24.769Z,30.4
2018-09-08T07:25:27.220Z,30.4
2018-09-08T07:26:29.665Z,30.4
2018-09-08T07:27:31.836Z,30.4
2018-09-08T07:28:34.279Z,30.4
2018-09-08T07:29:36.421Z,30.4
2018-09-08T07:30:38.308Z,30.4
2018-09-08T07:31:40.482Z,30.4
2018-09-08T07:32:42.950Z,30.4
2018-09-08T07:33:45.444Z,30.4
2018-09-08T07:34:47.897Z,30.4
2018-09-08T07:35:50.335Z,30.4
2018-09-08T07:36:52.773Z,30.4
2018-09-08T07:37:55.237Z,30.4
2018-09-08T07:38:57.745Z,30.4
2018-09-08T07:40:00.217Z,30.4
2018-09-08T07:41:02.833Z,30.4
2018-09-08T07:42:05.288Z,30.4
2018-09-08T07:43:07.725Z,30.4
2018-09-08T07:44:09.940Z,30.4
2018-09-08T07:45:12.420Z,30.4
2018-09-08T07:46:14.865Z,30.4
2018-09-08T07:47:17.295Z,30.4
2018-09-08T07:48:19.757Z,30.4
2018-09-08T07:49:22.234Z,30.4
2018-09-08T07:50:24.657Z,30.4
2018-09-08T07:51:26.805Z,30.4
2018-09-08T07:52:29.242Z,30.4
2018-09-08T07:53:32.254Z,30.4
2018-09-08T07:54:34.844Z,30.4
2018-09-08T07:55:37.277Z,30.4
2018-09-08T07:56:39.724Z,30.4
2018-09-08T07:57:42.191Z,30.4
2018-09-08T07:58:44.625Z,30.4
2018-09-08T07:59:47.062Z,30.4
2018-09-08T08:00:49.494Z,30.4
2018-09-08T08:01:51.924Z,30.4
2018-09-08T08:02:54.364Z,30.4
2018-09-08T08:03:56.825Z,30.4
2018-09-08T08:04:59.278Z,30.4
2018-09-08T08:06:01.439Z,30.4
2018-09-08T08:07:03.897Z,30.4
2018-09-08T08:08:06.064Z,30.4
2018-09-08T08:09:08.518Z,30.4
2018-09-08T08:10:10.971Z,30.4
2018-09-08T08:11:13.417Z,30.4
2018-09-08T08:12:15.899Z,30.4
2018-09-08T08:13:18.356Z,30.4
2018-09-08T08:14:20.894Z,30.4
2018-09-08T08:15:23.428Z,30.4
2018-09-08T08:16:25.897Z,30.4
2018-09-08T08:17:28.336Z,30.4
2018-09-08T08:18:30.774Z,30.4
2018-09-08T08:19:32.910Z,30.3
2018-09-08T08:20:35.337Z,30.4
2018-09-08T08:21:37.759Z,30.4
2018-09-08T08:22:39.916Z,30.4
2018-09-08T08:23:42.364Z,30.4
2018-09-08T08:24:44.807Z,30.4
2018-09-08T08:25:47.244Z,30.4
2018-09-08T08:26:49.685Z,30.4
2018-09-08T08:27:52.134Z,30.4
2018-09-08T08:28:54.574Z,30.4
2018-09-08T08:29:57.022Z,30.4
2018-09-08T08:30:59.506Z,30.3
2018-09-08T08:32:01.987Z,30.3
2018-09-08T08:33:04.432Z,30.3
2018-09-08T08:34:06.872Z,30.3
2018-09-08T08:35:09.339Z,30.4
2018-09-08T08:36:11.783Z,30.3
2018-09-08T08:37:14.540Z,30.3
2018-09-08T08:38:17.153Z,30.3
2018-09-08T08:39:19.613Z,30.4
2018-09-08T08:40:21.794Z,30.3
2018-09-08T08:41:24.239Z,30.3
2018-09-08T08:42:26.678Z,30.3
2018-09-08T08:43:29.110Z,30.3
2018-09-08T08:44:31.547Z,30.3
2018-09-08T08:45:33.978Z,30.3
2018-09-08T08:46:36.169Z,30.3
2018-09-08T08:47:38.606Z,30.3
2018-09-08T08:48:41.077Z,30.3
2018-09-08T08:49:43.639Z,30.3
2018-09-08T08:50:46.444Z,30.3
2018-09-08T08:51:48.911Z,30.3
2018-09-08T08:52:51.087Z,30.3
2018-09-08T08:53:53.575Z,30.3
2018-09-08T08:54:56.015Z,30.3
2018-09-08T08:55:58.438Z,30.3
2018-09-08T08:57:00.887Z,30.3
2018-09-08T08:58:03.332Z,30.4
2018-09-08T08:59:05.769Z,30.3
2018-09-08T09:00:07.929Z,30.4
2018-09-08T09:01:10.375Z,30.3
2018-09-08T09:02:12.825Z,30.3
2018-09-08T09:03:15.264Z,30.3
2018-09-08T09:04:17.705Z,30.3
2018-09-08T09:05:20.130Z,30.4
2018-09-08T09:06:22.582Z,30.3
2018-09-08T09:07:25.008Z,30.3
2018-09-08T09:08:29.208Z,30.4
2018-09-08T09:09:33.329Z,30.4
2018-09-08T09:10:35.766Z,30.3
2018-09-08T09:11:38.591Z,30.4
2018-09-08T09:12:41.821Z,30.3
2018-09-08T09:13:44.265Z,30.3
2018-09-08T09:14:46.727Z,30.4
2018-09-08T09:15:49.164Z,30.3
2018-09-08T09:16:51.607Z,30.3
2018-09-08T09:17:53.782Z,30.3
2018-09-08T09:18:58.096Z,30.4
2018-09-08T09:20:01.871Z,30.3
2018-09-08T09:21:04.315Z,30.3
2018-09-08T09:22:06.756Z,30.3
2018-09-08T09:23:09.648Z,30.3
2018-09-08T09:24:12.291Z,30.3
2018-09-08T09:25:15.152Z,30.3
2018-09-08T09:26:17.585Z,30.3
2018-09-08T09:27:20.032Z,30.3
2018-09-08T09:28:22.486Z,30.3
2018-09-08T09:29:24.927Z,30.3
2018-09-08T09:30:27.360Z,30.3
2018-09-08T09:31:29.518Z,30.3
2018-09-08T09:32:31.997Z,30.3
2018-09-08T09:33:34.441Z,30.3
2018-09-08T09:34:36.606Z,30.3
2018-09-08T09:35:39.044Z,30.3
2018-09-08T09:36:41.491Z,30.3
2018-09-08T09:37:43.923Z,30.3
2018-09-08T09:38:46.375Z,30.3
2018-09-08T09:39:48.806Z,30.3
2018-09-08T09:40:51.245Z,30.3
2018-09-08T09:41:53.678Z,30.3
2018-09-08T09:42:56.155Z,30.3
2018-09-08T09:43:58.597Z,30.3
2018-09-08T09:45:01.048Z,30.3
2018-09-08T09:46:03.214Z,30.3
2018-09-08T09:47:05.656Z,30.3
2018-09-08T09:48:08.106Z,30.3
2018-09-08T09:49:10.544Z,30.3
2018-09-08T09:50:12.719Z,30.3
2018-09-08T09:51:15.173Z,30.3
2018-09-08T09:52:17.606Z,30.3
2018-09-08T09:53:19.833Z,30.3
2018-09-08T09:54:22.264Z,30.3
2018-09-08T09:55:24.715Z,30.3
2018-09-08T09:56:27.141Z,30.3
2018-09-08T09:57:29.598Z,30.3
2018-09-08T09:58:32.041Z,30.3
2018-09-08T09:59:34.486Z,30.3
2018-09-08T10:00:36.937Z,30.3
2018-09-08T10:01:39.383Z,30.3
2018-09-08T10:02:41.837Z,30.3
2018-09-08T10:03:44.287Z,30.3
2018-09-08T10:04:46.717Z,30.3
2018-09-08T10:05:49.148Z,30.3
2018-09-08T10:06:51.607Z,30.3
2018-09-08T10:07:54.038Z,30.3
2018-09-08T10:08:56.475Z,30.3
2018-09-08T10:09:58.935Z,30.3
2018-09-08T10:11:01.386Z,30.3
2018-09-08T10:12:03.653Z,30.3
2018-09-08T10:13:06.350Z,30.3
2018-09-08T10:14:08.504Z,30.3
2018-09-08T10:15:10.951Z,30.3
2018-09-08T10:16:13.387Z,30.3
2018-09-08T10:17:15.867Z,30.3
2018-09-08T10:18:18.305Z,30.3
2018-09-08T10:19:20.737Z,30.4
2018-09-08T10:20:23.186Z,30.3
2018-09-08T10:21:25.654Z,30.4
2018-09-08T10:22:28.088Z,30.4
2018-09-08T10:23:30.824Z,30.3
2018-09-08T10:24:33.629Z,30.3
2018-09-08T10:25:36.076Z,30.4
2018-09-08T10:26:38.508Z,30.3
2018-09-08T10:27:40.951Z,30.4
2018-09-08T10:28:43.390Z,30.4
2018-09-08T10:29:45.556Z,30.4
2018-09-08T10:30:48.006Z,30.4
2018-09-08T10:31:52.074Z,30.4
2018-09-08T10:32:54.614Z,30.4
2018-09-08T10:33:57.056Z,30.4
2018-09-08T10:34:59.486Z,30.4
2018-09-08T10:36:01.655Z,30.4
2018-09-08T10:37:04.107Z,30.4
2018-09-08T10:38:06.542Z,30.4
2018-09-08T10:39:08.965Z,30.4
2018-09-08T10:40:11.547Z,30.4
2018-09-08T10:41:14.036Z,30.4
2018-09-08T10:42:16.472Z,30.4
2018-09-08T10:43:18.911Z,30.4
2018-09-08T10:44:21.346Z,30.4
2018-09-08T10:45:23.801Z,30.4
2018-09-08T10:46:26.239Z,30.4
2018-09-08T10:47:28.666Z,30.4
2018-09-08T10:48:31.107Z,30.4
2018-09-08T10:49:33.544Z,30.4
2018-09-08T10:50:35.974Z,30.4
2018-09-08T10:51:38.403Z,30.4
2018-09-08T10:52:40.858Z,30.4
2018-09-08T10:53:43.278Z,30.4
2018-09-08T10:54:45.709Z,30.4
2018-09-08T10:55:48.165Z,30.4
2018-09-08T10:56:50.598Z,30.4
2018-09-08T10:57:53.100Z,30.4
2018-09-08T10:58:55.540Z,30.4
2018-09-08T10:59:57.974Z,30.4
2018-09-08T11:01:00.421Z,30.4
2018-09-08T11:02:04.078Z,30.4
2018-09-08T11:03:07.503Z,30.4
2018-09-08T11:04:09.955Z,30.4
2018-09-08T11:05:12.384Z,30.4
2018-09-08T11:06:14.835Z,30.4
2018-09-08T11:07:17.265Z,30.4
2018-09-08T11:08:19.708Z,30.4
2018-09-08T11:09:22.137Z,30.4
2018-09-08T11:10:24.578Z,30.4
2018-09-08T11:11:27.032Z,30.4
2018-09-08T11:12:29.207Z,30.4
2018-09-08T11:13:31.647Z,30.4
2018-09-08T11:14:34.084Z,30.4
2018-09-08T11:15:36.535Z,30.4
2018-09-08T11:16:38.965Z,30.4
2018-09-08T11:17:41.393Z,30.4
2018-09-08T11:18:43.898Z,30.4
2018-09-08T11:19:46.396Z,30.4
2018-09-08T11:20:48.838Z,30.4
2018-09-08T11:21:51.265Z,30.4
2018-09-08T11:22:53.708Z,30.4
2018-09-08T11:23:56.143Z,30.4
2018-09-08T11:24:58.606Z,30.4
2018-09-08T11:26:01.053Z,30.4
2018-09-08T11:27:03.516Z,30.4
2018-09-08T11:28:05.959Z,30.4
2018-09-08T11:29:08.398Z,30.4
2018-09-08T11:30:10.832Z,30.4
2018-09-08T11:31:13.281Z,30.4
2018-09-08T11:32:15.738Z,30.4
2018-09-08T11:33:18.178Z,30.4
2018-09-08T11:34:20.640Z,30.4
2018-09-08T11:35:23.095Z,30.4
2018-09-08T11:36:25.553Z,30.4
2018-09-08T11:37:27.989Z,30.4
2018-09-08T11:38:30.905Z,30.4
2018-09-08T11:39:33.612Z,30.4
2018-09-08T11:40:36.052Z,30.4
2018-09-08T11:41:38.527Z,30.4
2018-09-08T11:42:40.979Z,30.4
2018-09-08T11:43:43.437Z,30.4
2018-09-08T11:44:46.036Z,30.4
2018-09-08T11:45:48.581Z,30.4
2018-09-08T11:46:51.013Z,30.4
2018-09-08T11:47:53.453Z,30.4
2018-09-08T11:48:55.885Z,30.4
2018-09-08T11:49:58.318Z,30.4
2018-09-08T11:51:00.809Z,30.4
2018-09-08T11:52:03.314Z,30.4
2018-09-08T11:53:05.879Z,30.4
2018-09-08T11:54:08.344Z,30.4
2018-09-08T11:55:10.781Z,30.4
2018-09-08T11:56:13.284Z,30.4
2018-09-08T11:57:15.752Z,30.4
2018-09-08T11:58:18.197Z,30.4
2018-09-08T11:59:20.336Z,30.4
2018-09-08T12:00:22.786Z,30.4
2018-09-08T12:01:25.243Z,30.4
2018-09-08T12:02:27.689Z,30.4
2018-09-08T12:03:30.130Z,30.4
2018-09-08T12:04:32.564Z,30.4
2018-09-08T12:05:34.994Z,30.4
2018-09-08T12:06:37.474Z,30.4
2018-09-08T12:07:39.915Z,30.4
2018-09-08T12:08:42.332Z,30.4
2018-09-08T12:09:44.766Z,30.4
2018-09-08T12:10:47.532Z,30.4
2018-09-08T12:11:49.439Z,30.4
2018-09-08T12:12:51.898Z,30.4
2018-09-08T12:13:54.507Z,30.4
2018-09-08T12:14:57.102Z,30.4
2018-09-08T12:15:59.558Z,30.4
2018-09-08T12:17:02.001Z,30.4
2018-09-08T12:18:04.153Z,30.4
2018-09-08T12:19:06.838Z,30.4
2018-09-08T12:20:09.456Z,30.4
2018-09-08T12:21:11.916Z,30.4
2018-09-08T12:22:14.585Z,30.4
2018-09-08T12:23:17.211Z,30.4
2018-09-08T12:24:19.666Z,30.4
2018-09-08T12:25:21.837Z,30.4
2018-09-08T12:26:24.006Z,30.4
2018-09-08T12:27:26.472Z,30.4
2018-09-08T12:28:28.981Z,30.4
2018-09-08T12:29:31.422Z,30.4
2018-09-08T12:30:34.258Z,30.4
2018-09-08T12:31:36.989Z,30.4
2018-09-08T12:32:39.440Z,30.4
2018-09-08T12:33:41.626Z,30.4
2018-09-08T12:34:44.079Z,30.4
2018-09-08T12:35:46.527Z,30.4
2018-09-08T12:36:48.400Z,30.4
2018-09-08T12:37:50.577Z,30.4
2018-09-08T12:38:53.313Z,30.4
2018-09-08T12:39:55.980Z,30.4
2018-09-08T12:40:58.436Z,30.4
2018-09-08T12:42:00.867Z,30.4
2018-09-08T12:43:03.336Z,30.4
2018-09-08T12:44:05.777Z,30.4
2018-09-08T12:45:08.227Z,30.4
2018-09-08T12:46:10.668Z,30.4
2018-09-08T12:47:13.106Z,30.4
2018-09-08T12:48:15.560Z,30.4
2018-09-08T12:49:17.993Z,30.4
2018-09-08T12:50:20.434Z,30.4
2018-09-08T12:51:22.882Z,30.4
2018-09-08T12:52:25.330Z,30.4
2018-09-08T12:53:28.097Z,30.4
2018-09-08T12:54:30.404Z,30.4
2018-09-08T12:55:32.841Z,30.4
2018-09-08T12:56:35.282Z,30.4
2018-09-08T12:57:37.722Z,30.4
2018-09-08T12:58:40.163Z,30.4
2018-09-08T12:59:42.597Z,30.4
2018-09-08T13:00:45.050Z,30.4
2018-09-08T13:01:47.485Z,30.4
2018-09-08T13:02:49.918Z,30.4
2018-09-08T13:03:52.369Z,30.4
2018-09-08T13:04:54.797Z,30.4
2018-09-08T13:05:57.212Z,30.4
2018-09-08T13:06:59.668Z,30.4
2018-09-08T13:08:02.124Z,30.4
2018-09-08T13:09:04.364Z,30.4
2018-09-08T13:10:06.823Z,30.4
2018-09-08T13:11:09.272Z,30.4
2018-09-08T13:12:11.738Z,30.4
2018-09-08T13:13:14.184Z,30.4
2018-09-08T13:14:16.734Z,30.4
2018-09-08T13:15:19.347Z,30.4
2018-09-08T13:16:21.795Z,30.4
2018-09-08T13:17:24.225Z,30.4
2018-09-08T13:18:26.670Z,30.4
2018-09-08T13:19:29.114Z,30.4
2018-09-08T13:20:31.562Z,30.4
2018-09-08T13:21:34.008Z,30.4
2018-09-08T13:22:36.443Z,30.4
2018-09-08T13:23:38.605Z,30.4
2018-09-08T13:24:41.033Z,30.4
2018-09-08T13:25:43.461Z,30.4
2018-09-08T13:26:45.899Z,30.4
2018-09-08T13:27:48.073Z,30.4
2018-09-08T13:28:50.510Z,30.4
2018-09-08T13:29:52.964Z,30.4
2018-09-08T13:30:55.391Z,30.4
2018-09-08T13:31:57.829Z,30.4
2018-09-08T13:33:00.289Z,30.4
2018-09-08T13:34:02.711Z,30.4
2018-09-08T13:35:05.140Z,30.4
2018-09-08T13:36:07.319Z,30.4
2018-09-08T13:37:09.758Z,30.4
2018-09-08T13:38:11.933Z,30.4
2018-09-08T13:39:14.388Z,30.4
2018-09-08T13:40:16.831Z,30.4
2018-09-08T13:41:19.259Z,30.4
2018-09-08T13:42:21.688Z,30.4
2018-09-08T13:43:24.125Z,30.4
2018-09-08T13:44:26.580Z,30.4
2018-09-08T13:45:29.017Z,30.4
2018-09-08T13:46:31.435Z,30.4
2018-09-08T13:47:33.870Z,30.4
2018-09-08T13:48:36.309Z,30.4
2018-09-08T13:49:38.746Z,30.4
2018-09-08T13:50:41.200Z,30.4
2018-09-08T13:51:43.647Z,30.4
2018-09-08T13:52:46.245Z,30.4
2018-09-08T13:53:48.798Z,30.4
2018-09-08T13:54:51.240Z,30.4
2018-09-08T13:55:53.700Z,30.4
2018-09-08T13:56:56.134Z,30.4